Time;durP1;ratioP1;P1;durP2;ratioP2;P2;SDS_P1;SDS_P2;PMS_P1;PMS_P2;Temp;Humidity;BMP_temperature;BMP_pressure;BME280_temperature;BME280_humidity;BME280_pressure;Samples;Min_cycle;Max_cycle;Signal;HPM_P1;HPM_P2
2023/03/05 00:01:27;;;;;;;4.00;1.17;;;5.10;99.90;;;;;;5031960;28;20230;-83
2023/03/05 00:03:56;;;;;;;4.23;1.20;;;5.10;99.90;;;;;;5037183;28;20562;-81
2023/03/05 00:06:25;;;;;;;6.07;1.60;;;5.10;99.90;;;;;;5038881;28;20209;-80
2023/03/05 00:08:52;;;;;;;2.97;0.93;;;5.00;99.90;;;;;;5039769;28;20206;-81
2023/03/05 00:11:21;;;;;;;3.43;0.90;;;5.00;99.90;;;;;;5038887;28;20194;-81
2023/03/05 00:13:52;;;;;;;4.00;1.10;;;5.00;99.90;;;;;;5038204;28;20671;-81
2023/03/05 00:16:19;;;;;;;3.30;1.07;;;5.00;99.90;;;;;;5038699;28;20326;-81
2023/03/05 00:18:47;;;;;;;3.97;0.90;;;4.90;99.90;;;;;;5038772;28;20591;-82
2023/03/05 00:21:20;;;;;;;4.47;1.23;;;4.90;99.90;;;;;;5037836;28;20224;-82
2023/03/05 00:23:47;;;;;;;4.70;0.90;;;4.90;99.90;;;;;;5038620;28;20281;-82
2023/03/05 00:26:14;;;;;;;4.50;1.07;;;4.90;99.90;;;;;;5038601;28;20203;-81
2023/03/05 00:28:41;;;;;;;6.33;1.20;;;4.80;99.90;;;;;;5038889;28;20261;-81
2023/03/05 00:31:09;;;;;;;4.73;0.90;;;4.80;99.90;;;;;;5038917;28;20591;-81
2023/03/05 00:33:36;;;;;;;3.10;0.83;;;4.80;99.90;;;;;;5038025;28;20269;-82
2023/03/05 00:36:06;;;;;;;3.73;1.00;;;4.80;99.90;;;;;;5038857;28;20292;-82
2023/03/05 00:38:33;;;;;;;5.63;1.67;;;4.80;99.90;;;;;;5038957;28;20279;-82
2023/03/05 00:41:00;;;;;;;3.93;1.97;;;4.80;99.90;;;;;;5038947;28;20607;-82
2023/03/05 00:43:27;;;;;;;3.93;1.30;;;4.90;99.90;;;;;;5038781;28;20297;-82
2023/03/05 00:45:54;;;;;;;5.70;1.40;;;5.00;99.90;;;;;;5039834;28;20241;-81
2023/03/05 00:48:24;;;;;;;6.20;1.10;;;5.10;99.90;;;;;;5048085;28;20256;-82
2023/03/05 00:50:51;;;;;;;4.57;1.20;;;5.10;99.90;;;;;;5039285;28;20286;-82
2023/03/05 00:53:18;;;;;;;3.07;1.00;;;5.10;99.90;;;;;;5039648;28;20289;-81
2023/03/05 00:55:45;;;;;;;5.33;0.87;;;5.10;99.90;;;;;;5039001;28;20234;-82
2023/03/05 00:58:12;;;;;;;4.23;1.00;;;5.00;99.90;;;;;;5039563;28;20285;-83
2023/03/05 01:00:39;;;;;;;3.23;0.77;;;5.00;99.90;;;;;;5038143;28;20202;-82
2023/03/05 01:03:06;;;;;;;3.93;1.83;;;5.00;99.90;;;;;;5038258;28;20289;-81
2023/03/05 01:05:34;;;;;;;4.63;1.43;;;4.90;99.90;;;;;;5038708;28;20221;-80
2023/03/05 01:08:01;;;;;;;3.50;1.23;;;4.90;99.90;;;;;;5038836;28;20190;-81
2023/03/05 01:10:29;;;;;;;5.70;1.77;;;4.90;99.90;;;;;;5038400;28;20602;-83
2023/03/05 01:12:57;;;;;;;7.67;1.23;;;4.90;99.90;;;;;;5039269;28;20191;-84
2023/03/05 01:15:25;;;;;;;3.43;1.23;;;4.90;99.90;;;;;;5035839;28;20254;-83
2023/03/05 01:17:52;;;;;;;3.50;0.93;;;4.90;99.90;;;;;;5036267;28;20282;-82
2023/03/05 01:20:22;;;;;;;3.23;0.97;;;4.80;99.90;;;;;;5036206;28;20213;-82
2023/03/05 01:22:50;;;;;;;5.40;1.40;;;4.80;99.90;;;;;;5040589;28;20251;-83
2023/03/05 01:25:18;;;;;;;4.03;0.97;;;4.80;99.90;;;;;;5056356;28;20259;-83
2023/03/05 01:27:45;;;;;;;5.47;0.83;;;4.80;99.90;;;;;;5045379;28;20567;-82
2023/03/05 01:30:14;;;;;;;3.43;1.07;;;4.70;99.90;;;;;;5035742;28;20227;-82
2023/03/05 01:32:41;;;;;;;3.13;1.07;;;4.70;99.90;;;;;;5035956;28;20257;-83
2023/03/05 01:35:09;;;;;;;4.40;1.07;;;4.70;99.90;;;;;;5035449;28;20619;-83
2023/03/05 01:37:36;;;;;;;5.97;1.37;;;4.60;99.90;;;;;;5035523;28;20470;-83
2023/03/05 01:40:05;;;;;;;2.27;0.73;;;4.70;99.90;;;;;;5035785;28;20202;-83
2023/03/05 01:42:32;;;;;;;1.53;0.77;;;4.60;99.90;;;;;;5035708;28;20289;-83
2023/03/05 01:45:02;;;;;;;1.90;0.70;;;4.60;99.90;;;;;;5050967;28;20226;-81
2023/03/05 01:47:29;;;;;;;5.10;1.30;;;4.60;99.90;;;;;;5049317;28;20216;-82
2023/03/05 01:49:57;;;;;;;4.40;1.10;;;4.60;99.90;;;;;;5035486;28;20252;-83
2023/03/05 01:52:26;;;;;;;5.97;1.00;;;4.60;99.90;;;;;;5035870;28;20209;-82
2023/03/05 01:54:55;;;;;;;3.23;1.33;;;4.70;99.90;;;;;;5035015;28;20222;-83
2023/03/05 01:57:28;;;;;;;5.70;1.03;;;4.70;99.90;;;;;;5034832;28;20509;-83
2023/03/05 01:59:59;;;;;;;3.77;0.97;;;4.80;99.90;;;;;;5034980;28;20278;-82
2023/03/05 02:02:26;;;;;;;4.23;1.70;;;4.90;99.90;;;;;;5035227;28;20198;-83
2023/03/05 02:04:57;;;;;;;5.40;1.47;;;5.00;99.90;;;;;;5034024;28;20206;-82
2023/03/05 02:07:24;;;;;;;2.73;0.90;;;5.00;99.90;;;;;;5034263;28;20209;-82
2023/03/05 02:09:51;;;;;;;3.90;1.47;;;5.00;99.90;;;;;;5034819;28;20203;-83
2023/03/05 02:12:19;;;;;;;5.43;1.17;;;5.00;99.90;;;;;;5034406;28;20199;-82
2023/03/05 02:14:50;;;;;;;5.03;1.77;;;5.00;99.90;;;;;;5034052;28;20817;-81
2023/03/05 02:17:17;;;;;;;2.77;0.90;;;5.10;99.90;;;;;;5034775;28;20191;-81
2023/03/05 02:19:50;;;;;;;3.33;0.80;;;5.10;99.90;;;;;;5033972;28;20209;-82
2023/03/05 02:22:19;;;;;;;2.73;0.70;;;5.10;99.90;;;;;;5034949;28;20233;-82
2023/03/05 02:24:46;;;;;;;1.97;0.53;;;5.10;99.90;;;;;;5034638;28;20263;-82
2023/03/05 02:27:14;;;;;;;2.87;1.13;;;5.00;99.90;;;;;;5033928;28;20198;-81
2023/03/05 02:29:43;;;;;;;2.77;0.90;;;5.00;99.90;;;;;;5034423;28;20226;-82
2023/03/05 02:32:10;;;;;;;4.53;0.80;;;5.00;99.90;;;;;;5034501;28;20205;-83
2023/03/05 02:34:37;;;;;;;1.43;0.70;;;4.90;99.90;;;;;;5032748;28;20238;-82
2023/03/05 02:37:08;;;;;;;1.43;0.60;;;4.90;99.90;;;;;;5033559;28;20203;-82
2023/03/05 02:39:36;;;;;;;2.57;0.70;;;4.80;99.90;;;;;;5033655;28;20253;-81
2023/03/05 02:42:03;;;;;;;2.03;0.60;;;4.80;99.90;;;;;;5032838;28;20202;-81
2023/03/05 02:44:30;;;;;;;1.17;0.60;;;4.80;99.90;;;;;;5033204;28;20278;-83
2023/03/05 02:46:57;;;;;;;2.33;0.60;;;4.70;99.90;;;;;;5033273;28;20195;-80
2023/03/05 02:49:24;;;;;;;2.30;0.57;;;4.70;99.90;;;;;;5033682;28;20253;-81
2023/03/05 02:51:51;;;;;;;2.50;0.50;;;4.70;99.90;;;;;;5035046;28;20658;-81
2023/03/05 02:54:18;;;;;;;1.63;0.83;;;4.60;99.90;;;;;;5052451;28;20222;-82
2023/03/05 02:56:46;;;;;;;1.60;0.70;;;4.60;99.90;;;;;;5040256;28;20595;-81
2023/03/05 02:59:13;;;;;;;5.83;1.63;;;4.60;99.90;;;;;;5033105;28;20285;-80
2023/03/05 03:01:40;;;;;;;5.27;0.90;;;4.50;99.90;;;;;;5033111;28;20302;-81
2023/03/05 03:04:07;;;;;;;0.77;0.60;;;4.50;99.90;;;;;;5033284;28;20603;-83
2023/03/05 03:06:34;;;;;;;3.13;0.90;;;4.40;99.90;;;;;;5033289;28;20302;-82
2023/03/05 03:09:01;;;;;;;5.90;1.13;;;4.40;99.90;;;;;;5032404;28;20209;-81
2023/03/05 03:11:28;;;;;;;2.57;0.93;;;4.40;99.90;;;;;;5045892;28;20202;-81
2023/03/05 03:13:56;;;;;;;2.40;0.77;;;4.30;99.90;;;;;;5038337;28;20213;-81
2023/03/05 03:16:23;;;;;;;2.43;0.90;;;4.30;99.90;;;;;;5032545;28;20646;-83
2023/03/05 03:18:50;;;;;;;4.93;0.80;;;4.30;99.90;;;;;;5033032;28;20658;-81
2023/03/05 03:21:19;;;;;;;2.83;0.60;;;4.30;99.90;;;;;;5033644;28;20208;-83
2023/03/05 03:23:46;;;;;;;1.63;0.80;;;4.20;99.90;;;;;;5033910;28;20254;-83
2023/03/05 03:26:13;;;;;;;0.80;0.60;;;4.20;99.90;;;;;;5048494;28;20202;-84
2023/03/05 03:28:40;;;;;;;1.53;0.70;;;4.20;99.90;;;;;;5053955;28;20302;-83
2023/03/05 03:31:08;;;;;;;1.77;0.80;;;4.10;99.90;;;;;;5053285;28;20241;-83
2023/03/05 03:33:35;;;;;;;4.27;0.90;;;4.10;99.90;;;;;;5036881;28;20249;-83
2023/03/05 03:36:03;;;;;;;4.87;0.80;;;4.10;99.90;;;;;;5032242;28;20600;-82
2023/03/05 03:38:30;;;;;;;1.87;0.80;;;4.10;99.90;;;;;;5032314;28;20768;-82
2023/03/05 03:40:57;;;;;;;3.67;0.90;;;4.10;99.90;;;;;;5032590;28;20293;-82
2023/03/05 03:43:24;;;;;;;1.27;0.67;;;4.10;99.90;;;;;;5032580;28;20237;-82
2023/03/05 03:45:51;;;;;;;1.43;0.60;;;4.10;99.90;;;;;;5032489;28;20215;-81
2023/03/05 03:48:20;;;;;;;4.53;0.77;;;4.10;99.90;;;;;;5032550;28;20221;-81
2023/03/05 03:50:46;;;;;;;4.10;0.80;;;4.10;99.90;;;;;;5032098;28;20294;-82
2023/03/05 03:53:15;;;;;;;1.27;0.70;;;4.00;99.90;;;;;;5032888;28;20277;-82
2023/03/05 03:55:42;;;;;;;1.93;0.50;;;4.00;99.90;;;;;;5032435;28;20219;-82
2023/03/05 03:58:10;;;;;;;1.17;0.77;;;4.00;99.90;;;;;;5032368;28;20203;-82
2023/03/05 04:00:37;;;;;;;1.10;0.50;;;4.00;99.90;;;;;;5032279;28;20278;-82
2023/03/05 04:03:04;;;;;;;3.90;0.90;;;4.00;99.90;;;;;;5032669;28;20222;-81
2023/03/05 04:05:32;;;;;;;4.53;0.70;;;4.00;99.90;;;;;;5031719;28;20230;-82
2023/03/05 04:08:00;;;;;;;3.80;0.80;;;4.10;99.90;;;;;;5032654;28;20297;-82
2023/03/05 04:10:27;;;;;;;3.90;0.77;;;4.10;99.90;;;;;;5032801;28;20626;-81
2023/03/05 04:12:54;;;;;;;4.40;1.00;;;4.10;99.90;;;;;;5031672;28;20199;-82
2023/03/05 04:15:21;;;;;;;1.40;1.00;;;4.10;99.90;;;;;;5032396;28;20329;-82
2023/03/05 04:17:48;;;;;;;4.27;0.97;;;4.10;99.90;;;;;;5032500;28;20286;-81
2023/03/05 04:20:15;;;;;;;4.63;0.80;;;4.00;99.90;;;;;;5031744;28;20662;-82
2023/03/05 04:22:43;;;;;;;2.47;1.00;;;4.00;99.90;;;;;;5032201;28;20225;-81
2023/03/05 04:25:10;;;;;;;1.47;0.63;;;4.00;99.90;;;;;;5041727;28;20229;-81
2023/03/05 04:27:39;;;;;;;1.03;0.63;;;4.00;99.90;;;;;;5052406;28;20285;-82
2023/03/05 04:30:07;;;;;;;2.87;1.07;;;4.00;99.90;;;;;;5052810;28;20197;-83
2023/03/05 04:32:34;;;;;;;3.30;0.77;;;4.00;99.90;;;;;;5051615;28;20672;-82
2023/03/05 04:35:01;;;;;;;5.97;0.90;;;3.90;99.90;;;;;;5047900;28;20313;-83
2023/03/05 04:37:28;;;;;;;2.77;0.80;;;4.00;99.90;;;;;;5032721;28;20273;-82
2023/03/05 04:39:56;;;;;;;2.70;0.83;;;3.90;99.90;;;;;;5032034;28;20273;-82
2023/03/05 04:42:23;;;;;;;2.10;0.70;;;3.90;99.90;;;;;;5032063;28;20289;-82
2023/03/05 04:44:51;;;;;;;2.20;0.80;;;3.90;99.90;;;;;;5032466;28;20289;-82
2023/03/05 04:47:19;;;;;;;2.00;0.80;;;3.90;99.90;;;;;;5031547;28;20614;-81
2023/03/05 04:49:46;;;;;;;1.43;0.80;;;3.90;99.90;;;;;;5033015;28;20290;-82
2023/03/05 04:52:14;;;;;;;2.30;0.50;;;3.90;99.90;;;;;;5055254;28;20270;-83
2023/03/05 04:54:41;;;;;;;0.83;0.50;;;3.90;99.90;;;;;;5055227;28;20186;-83
2023/03/05 04:57:10;;;;;;;3.77;0.63;;;3.90;99.90;;;;;;5055640;28;20279;-82
2023/03/05 04:59:37;;;;;;;2.73;0.63;;;3.90;99.90;;;;;;5055813;28;20289;-82
2023/03/05 05:02:04;;;;;;;2.53;0.70;;;3.90;99.90;;;;;;5045290;28;20293;-83
2023/03/05 05:04:31;;;;;;;3.03;0.70;;;3.80;99.90;;;;;;5036488;28;20286;-83
2023/03/05 05:06:58;;;;;;;1.87;0.70;;;3.80;99.90;;;;;;5035484;28;20285;-83
2023/03/05 05:09:26;;;;;;;2.67;1.03;;;3.80;99.90;;;;;;5035751;28;20287;-82
2023/03/05 05:11:53;;;;;;;1.37;0.90;;;3.80;99.90;;;;;;5039024;28;20223;-83
2023/03/05 05:14:21;;;;;;;3.73;1.30;;;3.80;99.90;;;;;;5040231;28;21082;-83
2023/03/05 05:16:48;;;;;;;1.47;0.60;;;3.70;99.90;;;;;;5038605;28;20367;-82
2023/03/05 05:19:15;;;;;;;2.33;1.07;;;3.70;99.90;;;;;;5040468;28;20289;-81
2023/03/05 05:21:43;;;;;;;1.13;0.60;;;3.70;99.90;;;;;;5038044;28;20225;-83
2023/03/05 05:24:10;;;;;;;1.40;0.60;;;3.70;99.90;;;;;;5036575;28;20931;-83
2023/03/05 05:26:37;;;;;;;0.77;0.50;;;3.70;99.90;;;;;;5035023;28;20202;-83
2023/03/05 05:29:04;;;;;;;2.17;0.70;;;3.70;99.90;;;;;;5034109;28;20226;-83
2023/03/05 05:31:32;;;;;;;4.43;1.17;;;3.70;99.90;;;;;;5035738;28;20832;-82
2023/03/05 05:33:59;;;;;;;3.50;0.80;;;3.70;99.90;;;;;;5035884;28;20246;-83
2023/03/05 05:36:26;;;;;;;5.97;0.97;;;3.80;99.90;;;;;;5035081;28;20682;-82
2023/03/05 05:38:53;;;;;;;4.40;0.70;;;3.90;99.90;;;;;;5034700;28;20187;-82
2023/03/05 05:41:20;;;;;;;5.10;0.83;;;4.00;99.90;;;;;;5034821;28;20823;-81
2023/03/05 05:43:47;;;;;;;1.60;0.90;;;4.00;99.90;;;;;;5034315;28;20214;-82
2023/03/05 05:46:16;;;;;;;2.93;0.90;;;4.10;99.90;;;;;;5034577;28;20820;-82
2023/03/05 05:48:45;;;;;;;2.63;0.90;;;4.10;99.90;;;;;;5034375;28;20207;-81
2023/03/05 05:51:16;;;;;;;2.93;0.77;;;4.20;99.90;;;;;;5034487;28;20206;-82
2023/03/05 05:53:44;;;;;;;5.07;0.70;;;4.30;99.90;;;;;;5034619;28;20197;-81
2023/03/05 05:56:12;;;;;;;4.10;0.63;;;4.40;99.90;;;;;;5034911;28;20226;-82
2023/03/05 05:58:40;;;;;;;1.93;0.60;;;4.30;99.90;;;;;;5034979;28;20194;-82
2023/03/05 06:01:13;;;;;;;2.50;1.00;;;4.30;99.90;;;;;;5034485;28;20199;-81
2023/03/05 06:03:40;;;;;;;1.87;0.57;;;4.30;99.90;;;;;;5033682;28;20198;-81
2023/03/05 06:06:10;;;;;;;2.93;0.73;;;4.20;99.90;;;;;;5034403;28;20216;-80
2023/03/05 06:08:38;;;;;;;1.40;0.93;;;4.30;99.90;;;;;;5034297;28;20298;-82
2023/03/05 06:11:05;;;;;;;3.73;0.63;;;4.20;99.90;;;;;;5034734;28;20288;-82
2023/03/05 06:13:32;;;;;;;2.50;0.50;;;4.30;99.90;;;;;;5034670;28;20211;-82
2023/03/05 06:16:01;;;;;;;1.13;0.60;;;4.30;99.90;;;;;;5034600;28;20317;-82
2023/03/05 06:18:28;;;;;;;1.73;1.17;;;4.20;99.90;;;;;;5034158;28;20282;-82
2023/03/05 06:20:56;;;;;;;3.40;0.57;;;4.20;99.90;;;;;;5034533;28;20603;-82
2023/03/05 06:23:26;;;;;;;4.13;0.60;;;4.20;99.90;;;;;;5035026;28;20226;-82
2023/03/05 06:25:53;;;;;;;1.10;0.50;;;4.20;99.90;;;;;;5034105;28;20282;-81
2023/03/05 06:28:20;;;;;;;1.97;0.63;;;4.20;99.90;;;;;;5034437;28;20203;-81
2023/03/05 06:30:47;;;;;;;2.07;0.60;;;4.20;99.90;;;;;;5034303;28;20640;-83
2023/03/05 06:33:14;;;;;;;2.10;0.77;;;4.20;99.90;;;;;;5033920;28;20556;-80
2023/03/05 06:35:41;;;;;;;2.60;0.90;;;4.20;99.90;;;;;;5033700;28;20518;-82
2023/03/05 06:38:09;;;;;;;3.70;0.80;;;4.20;99.90;;;;;;5034540;28;20503;-81
2023/03/05 06:40:39;;;;;;;1.90;0.90;;;4.20;99.90;;;;;;5034043;28;20548;-82
2023/03/05 06:43:06;;;;;;;1.33;0.60;;;4.30;99.90;;;;;;5033802;28;20578;-82
2023/03/05 06:45:33;;;;;;;7.60;0.80;;;4.30;99.90;;;;;;5034035;28;20214;-82
2023/03/05 06:47:59;;;;;;;2.37;0.83;;;4.30;99.90;;;;;;5033562;28;20293;-82
2023/03/05 06:50:26;;;;;;;1.57;0.60;;;4.30;99.90;;;;;;5034045;28;20293;-81
2023/03/05 06:52:53;;;;;;;3.83;0.93;;;4.30;99.90;;;;;;5033426;28;20199;-81
2023/03/05 06:55:20;;;;;;;7.07;2.43;;;4.30;99.90;;;;;;5034179;28;20225;-83
2023/03/05 06:57:50;;;;;;;4.07;1.27;;;4.40;99.90;;;;;;5033193;28;20607;-81
2023/03/05 07:00:17;;;;;;;1.73;0.90;;;4.40;99.90;;;;;;5033719;28;20573;-81
2023/03/05 07:02:44;;;;;;;3.87;0.70;;;4.40;99.90;;;;;;5032815;28;20281;-81
2023/03/05 07:05:11;;;;;;;2.73;0.80;;;4.50;99.90;;;;;;5032793;28;20238;-80
2023/03/05 07:07:38;;;;;;;1.93;0.70;;;4.50;99.90;;;;;;5032529;28;20210;-79
2023/03/05 07:10:07;;;;;;;4.60;0.77;;;4.50;99.90;;;;;;5035965;28;20208;-81
2023/03/05 07:12:34;;;;;;;3.07;2.00;;;4.40;99.90;;;;;;5051419;28;20198;-80
2023/03/05 07:15:03;;;;;;;3.00;0.80;;;4.30;99.90;;;;;;5052225;28;20212;-80
2023/03/05 07:17:30;;;;;;;4.13;0.70;;;4.30;99.90;;;;;;5038869;28;20565;-81
2023/03/05 07:19:57;;;;;;;1.13;0.60;;;4.30;99.90;;;;;;5033310;28;20252;-82
2023/03/05 07:22:23;;;;;;;3.90;0.60;;;4.30;99.90;;;;;;5033558;28;20191;-82
2023/03/05 07:24:50;;;;;;;3.00;0.80;;;4.30;99.90;;;;;;5051131;28;20236;-83
2023/03/05 07:27:17;;;;;;;1.20;0.60;;;4.30;99.90;;;;;;5052234;28;20197;-81
2023/03/05 07:29:44;;;;;;;1.20;0.70;;;4.30;99.90;;;;;;5052939;28;20281;-81
2023/03/05 07:32:12;;;;;;;2.93;0.43;;;4.30;99.90;;;;;;5051611;28;20225;-82
2023/03/05 07:34:39;;;;;;;2.57;0.80;;;4.40;99.90;;;;;;5033079;28;20324;-82
2023/03/05 07:37:06;;;;;;;4.93;0.80;;;4.40;99.90;;;;;;5032941;28;20225;-82
2023/03/05 07:39:33;;;;;;;4.97;1.17;;;4.50;99.90;;;;;;5033931;28;20302;-88
2023/03/05 07:42:00;;;;;;;2.20;1.23;;;4.40;99.90;;;;;;5033551;28;20230;-80
2023/03/05 07:44:27;;;;;;;2.33;1.23;;;4.50;99.90;;;;;;5038206;28;20190;-82
2023/03/05 07:46:54;;;;;;;1.10;0.80;;;4.50;99.90;;;;;;5038300;28;20198;-82
2023/03/05 07:49:22;;;;;;;1.20;0.70;;;4.50;99.90;;;;;;5033254;28;20210;-82
2023/03/05 07:51:49;;;;;;;2.40;1.27;;;4.60;99.90;;;;;;5033276;28;20285;-82
2023/03/05 07:54:24;;;;;;;4.63;1.00;;;4.60;99.90;;;;;;5020181;28;20366;-82
2023/03/05 07:56:51;;;;;;;3.43;1.67;;;4.70;99.90;;;;;;5052198;28;20292;-82
2023/03/05 07:59:18;;;;;;;5.87;3.83;;;4.70;99.90;;;;;;5052805;28;20285;-83
2023/03/05 08:01:46;;;;;;;8.37;3.93;;;4.80;99.90;;;;;;5052922;28;20217;-83
2023/03/05 08:04:13;;;;;;;7.50;3.07;;;4.80;99.90;;;;;;5039230;28;20504;-82
2023/03/05 08:06:41;;;;;;;5.97;2.73;;;4.90;99.90;;;;;;5041244;28;20286;-82
2023/03/05 08:09:08;;;;;;;3.67;1.67;;;4.90;99.90;;;;;;5049444;28;20279;-82
2023/03/05 08:11:35;;;;;;;2.83;1.27;;;4.90;99.90;;;;;;5051768;28;20266;-82
2023/03/05 08:14:40;;;;;;;2.43;1.00;;;4.90;99.90;;;;;;5013251;28;20206;-84
2023/03/05 08:17:09;;;;;;;2.47;0.70;;;4.90;99.90;;;;;;5045429;28;20332;-84
2023/03/05 08:19:36;;;;;;;1.83;0.90;;;4.90;99.90;;;;;;5048846;28;20194;-83
2023/03/05 08:22:04;;;;;;;2.67;1.20;;;5.00;99.90;;;;;;5032670;28;20207;-84
2023/03/05 08:24:31;;;;;;;1.30;0.70;;;5.00;99.90;;;;;;5034190;28;20676;-81
2023/03/05 08:26:58;;;;;;;4.27;0.90;;;5.10;99.90;;;;;;5037141;28;20281;-82
2023/03/05 08:29:25;;;;;;;2.03;0.90;;;5.20;99.90;;;;;;5037508;28;20211;-83
2023/03/05 08:31:53;;;;;;;3.30;1.00;;;5.30;99.90;;;;;;5036841;28;20208;-84
2023/03/05 08:34:20;;;;;;;2.20;1.00;;;5.40;99.90;;;;;;5040974;28;20233;-83
2023/03/05 08:36:47;;;;;;;2.33;1.10;;;5.50;99.90;;;;;;5057412;28;20809;-83
2023/03/05 08:39:16;;;;;;;7.13;1.50;;;5.60;99.90;;;;;;5057318;28;20664;-84
2023/03/05 08:41:43;;;;;;;2.97;0.83;;;5.70;99.90;;;;;;5056960;28;20548;-85
2023/03/05 08:44:10;;;;;;;4.00;0.90;;;5.80;99.90;;;;;;5042933;28;20252;-84
2023/03/05 08:46:39;;;;;;;4.87;0.90;;;5.90;99.90;;;;;;5036845;28;20231;-85
2023/03/05 08:49:07;;;;;;;3.00;0.90;;;5.90;99.90;;;;;;5036583;28;20600;-80
2023/03/05 08:51:34;;;;;;;4.10;1.10;;;5.90;99.90;;;;;;5035829;28;20671;-85
2023/03/05 08:54:05;;;;;;;3.73;0.80;;;6.00;99.90;;;;;;5035957;28;20206;-84
2023/03/05 08:56:34;;;;;;;3.93;1.10;;;6.00;99.90;;;;;;5036663;28;20306;-85
2023/03/05 08:59:01;;;;;;;4.47;1.30;;;6.10;99.90;;;;;;5045364;28;20212;-83
2023/03/05 09:01:29;;;;;;;7.33;1.10;;;6.10;99.90;;;;;;5055576;28;20209;-81
2023/03/05 09:03:56;;;;;;;6.63;1.27;;;6.20;99.90;;;;;;5055922;28;20208;-81
2023/03/05 09:06:23;;;;;;;4.73;1.07;;;6.20;99.90;;;;;;5040082;28;20656;-80
2023/03/05 09:08:50;;;;;;;4.53;0.80;;;6.30;99.90;;;;;;5034819;28;20197;-80
2023/03/05 09:11:17;;;;;;;4.20;0.80;;;6.40;99.90;;;;;;5035458;28;20234;-80
2023/03/05 09:13:46;;;;;;;12.40;1.93;;;6.40;99.90;;;;;;5034377;28;20205;-80
2023/03/05 09:16:15;;;;;;;2.60;0.80;;;6.30;99.90;;;;;;5035046;28;20306;-82
2023/03/05 09:18:42;;;;;;;3.47;0.77;;;6.50;99.90;;;;;;5036319;28;20686;-80
2023/03/05 09:21:12;;;;;;;2.03;0.90;;;6.50;99.90;;;;;;5054610;28;20201;-81
2023/03/05 09:23:39;;;;;;;3.37;0.83;;;6.50;99.90;;;;;;5052011;28;20198;-81
2023/03/05 09:26:07;;;;;;;3.03;0.80;;;6.60;99.90;;;;;;5035196;28;20198;-83
2023/03/05 09:28:34;;;;;;;3.60;1.03;;;6.70;99.90;;;;;;5035226;28;20281;-82
2023/03/05 09:31:04;;;;;;;1.80;0.80;;;6.70;99.90;;;;;;5034932;28;20282;-83
2023/03/05 09:33:31;;;;;;;3.83;0.80;;;6.70;99.90;;;;;;5034835;28;20608;-81
2023/03/05 09:35:58;;;;;;;2.60;0.73;;;6.80;99.90;;;;;;5033535;28;20577;-82
2023/03/05 09:38:25;;;;;;;2.67;0.50;;;6.90;99.90;;;;;;5052480;28;20201;-82
2023/03/05 09:41:01;;;;;;;2.87;0.70;;;6.90;99.90;;;;;;5055212;28;20197;-80
2023/03/05 09:43:38;;;;;;;4.10;0.80;;;7.00;99.90;;;;;;5054209;28;20217;-83
2023/03/05 09:46:21;;;;;;;3.70;0.70;;;7.10;99.90;;;;;;5054985;28;20205;-82
2023/03/05 09:48:51;;;;;;;3.33;0.80;;;7.10;99.90;;;;;;5054036;28;20622;-82
2023/03/05 09:51:23;;;;;;;2.67;0.90;;;7.20;99.90;;;;;;5039106;28;20210;-84
2023/03/05 09:53:56;;;;;;;3.60;0.93;;;7.20;99.90;;;;;;5051286;28;20210;-82
2023/03/05 09:56:26;;;;;;;3.10;0.97;;;7.30;99.90;;;;;;5050485;28;20202;-82
2023/03/05 09:58:56;;;;;;;3.37;0.73;;;7.40;99.90;;;;;;5046567;28;20298;-84
2023/03/05 10:01:30;;;;;;;1.43;0.50;;;7.40;99.90;;;;;;5050595;28;20206;-80
2023/03/05 10:04:01;;;;;;;4.97;0.83;;;7.40;99.90;;;;;;5044498;28;20613;-82
2023/03/05 10:06:31;;;;;;;3.17;0.90;;;7.50;99.90;;;;;;5049722;28;20196;-82
2023/03/05 10:09:03;;;;;;;2.00;0.50;;;7.50;99.90;;;;;;5045482;28;20201;-81
2023/03/05 10:11:49;;;;;;;2.60;0.93;;;7.70;99.90;;;;;;5043319;28;20198;-83
2023/03/05 10:14:22;;;;;;;3.37;0.70;;;7.70;99.90;;;;;;5050065;28;20229;-83
2023/03/05 10:17:15;;;;;;;1.50;0.57;;;7.70;99.90;;;;;;5053401;28;20241;-83
2023/03/05 10:19:57;;;;;;;1.10;0.80;;;7.70;99.90;;;;;;5029849;28;20206;-81
2023/03/05 10:22:28;;;;;;;2.40;0.70;;;7.70;99.90;;;;;;5046957;28;20248;-83
2023/03/05 10:25:11;;;;;;;2.43;0.60;;;7.70;99.90;;;;;;5052911;28;20496;-80
2023/03/05 10:27:48;;;;;;;2.43;0.50;;;7.70;99.90;;;;;;5050319;28;20286;-80
2023/03/05 10:30:49;;;;;;;3.07;0.60;;;7.70;99.90;;;;;;5052913;28;20199;-82
2023/03/05 10:33:24;;;;;;;3.67;1.10;;;7.80;99.90;;;;;;5045173;28;20256;-82
2023/03/05 10:36:19;;;;;;;1.83;1.07;;;7.60;99.90;;;;;;5050703;28;20244;-81
2023/03/05 10:39:00;;;;;;;1.90;0.80;;;7.70;99.90;;;;;;5050091;28;20218;-83
2023/03/05 10:41:33;;;;;;;2.77;0.70;;;7.70;99.90;;;;;;5055460;28;20228;-88
2023/03/05 10:44:09;;;;;;;2.97;1.30;;;7.80;99.90;;;;;;5041027;28;20202;-82
2023/03/05 10:46:37;;;;;;;5.43;1.97;;;7.90;99.90;;;;;;5033319;28;20593;-80
2023/03/05 10:49:17;;;;;;;1.23;0.50;;;7.80;99.90;;;;;;5033336;28;20286;-85
2023/03/05 10:51:51;;;;;;;2.67;0.53;;;7.80;99.90;;;;;;5032567;28;20198;-84
2023/03/05 10:54:25;;;;;;;1.53;0.63;;;7.80;99.90;;;;;;5032371;28;20202;-84
2023/03/05 10:57:02;;;;;;;0.90;0.50;;;7.90;99.90;;;;;;5033583;28;20638;-82
2023/03/05 10:59:29;;;;;;;3.33;0.83;;;7.90;99.90;;;;;;5034168;28;20669;-85
2023/03/05 11:02:03;;;;;;;1.30;0.57;;;8.00;99.90;;;;;;5049170;28;20297;-87
2023/03/05 11:04:36;;;;;;;1.57;0.60;;;8.10;99.90;;;;;;5054891;28;20201;-83
2023/03/05 11:07:08;;;;;;;1.67;0.40;;;8.20;99.90;;;;;;5048026;28;20542;-85
2023/03/05 11:09:35;;;;;;;0.70;0.60;;;8.30;99.90;;;;;;5054764;28;20776;-85
2023/03/05 11:12:13;;;;;;;2.57;0.50;;;8.40;99.90;;;;;;5054543;28;20301;-85
2023/03/05 11:14:42;;;;;;;1.33;0.60;;;8.60;99.90;;;;;;5054396;28;20289;-84
2023/03/05 11:17:29;;;;;;;4.03;0.60;;;8.60;99.90;;;;;;5053888;28;20291;-86
2023/03/05 11:23:22;;;;;;;2.40;0.73;;;8.70;99.90;;;;;;5053449;28;20202;-86
2023/03/05 11:25:58;;;;;;;4.90;1.00;;;8.50;99.90;;;;;;5045762;28;20225;-87
2023/03/05 11:28:28;;;;;;;3.53;1.07;;;8.60;99.90;;;;;;5039036;28;20224;-88
2023/03/05 11:30:58;;;;;;;2.37;0.53;;;8.60;99.90;;;;;;5052189;28;20233;-83
2023/03/05 11:33:26;;;;;;;2.30;0.53;;;8.60;99.90;;;;;;5054481;28;20371;-85
2023/03/05 11:36:13;;;;;;;2.60;0.70;;;8.60;99.90;;;;;;5054537;28;20188;-83
2023/03/05 11:38:50;;;;;;;1.80;0.60;;;8.70;99.90;;;;;;5052856;28;20563;-86
2023/03/05 11:41:21;;;;;;;1.67;1.00;;;8.70;99.90;;;;;;5049927;28;20202;-82
2023/03/05 11:43:50;;;;;;;5.43;0.80;;;8.80;99.90;;;;;;5049529;28;20233;-84
2023/03/05 11:46:17;;;;;;;3.33;0.80;;;8.80;99.90;;;;;;5050851;28;20209;-87
2023/03/05 11:48:46;;;;;;;3.13;0.67;;;8.80;99.90;;;;;;5054852;28;20802;-86
2023/03/05 11:51:20;;;;;;;2.93;1.37;;;8.80;99.90;;;;;;5052801;28;20228;-83
2023/03/05 11:53:51;;;;;;;2.83;0.93;;;8.80;99.90;;;;;;5052886;28;20495;-84
2023/03/05 11:56:21;;;;;;;2.77;0.80;;;8.80;99.90;;;;;;5053218;28;20281;-83
2023/03/05 11:58:52;;;;;;;2.97;0.53;;;8.80;99.90;;;;;;5036693;28;20265;-84
2023/03/05 12:01:22;;;;;;;4.30;0.70;;;8.80;99.90;;;;;;5033252;28;20204;-84
2023/03/05 12:03:50;;;;;;;3.57;0.60;;;8.80;99.90;;;;;;5032795;28;20209;-84
2023/03/05 12:06:27;;;;;;;4.80;0.80;;;8.80;99.90;;;;;;5036745;28;20277;-85
2023/03/05 12:08:56;;;;;;;3.03;0.80;;;8.80;99.90;;;;;;5036561;28;20278;-84
2023/03/05 12:11:27;;;;;;;2.73;0.80;;;8.80;99.90;;;;;;5033365;28;20202;-83
2023/03/05 12:13:57;;;;;;;4.77;0.80;;;8.80;99.90;;;;;;5033393;28;20203;-84
2023/03/05 12:16:38;;;;;;;2.13;0.70;;;8.80;99.90;;;;;;5032655;28;20285;-84
2023/03/05 12:19:34;;;;;;;4.57;0.73;;;8.80;99.90;;;;;;5033352;28;20338;-84
2023/03/05 12:22:03;;;;;;;4.77;0.80;;;8.90;99.90;;;;;;5033431;28;20621;-83
2023/03/05 12:24:38;;;;;;;2.73;0.63;;;9.00;99.90;;;;;;5032606;28;20599;-83
2023/03/05 12:27:09;;;;;;;1.70;0.60;;;8.90;99.90;;;;;;5033218;28;20841;-84
2023/03/05 12:29:49;;;;;;;2.87;0.83;;;9.00;99.90;;;;;;5032568;28;20278;-84
2023/03/05 12:33:02;;;;;;;2.43;0.80;;;8.90;99.90;;;;;;5037934;28;20705;-83
2023/03/05 12:35:38;;;;;;;4.73;0.97;;;9.00;99.90;;;;;;5051160;28;20194;-82
2023/03/05 12:38:30;;;;;;;3.60;1.00;;;8.80;99.90;;;;;;5051818;28;20256;-82
2023/03/05 12:41:36;;;;;;;1.47;0.70;;;8.80;99.90;;;;;;5036153;28;20202;-82
2023/03/05 12:44:21;;;;;;;3.23;0.97;;;8.70;99.90;;;;;;5017117;28;20222;-83
2023/03/05 12:47:16;;;;;;;2.50;0.70;;;8.70;99.90;;;;;;5031693;28;20283;-82
2023/03/05 12:49:46;;;;;;;6.83;1.80;;;8.80;99.90;;;;;;5032468;28;20218;-83
2023/03/05 12:52:25;;;;;;;5.53;1.77;;;8.90;99.90;;;;;;5031582;28;20248;-83
2023/03/05 12:55:16;;;;;;;2.83;0.73;;;8.90;99.90;;;;;;5032020;28;20257;-82
2023/03/05 12:57:45;;;;;;;2.40;1.07;;;8.90;99.90;;;;;;5030021;28;20243;-81
2023/03/05 13:00:20;;;;;;;3.80;0.80;;;8.80;99.90;;;;;;5031388;28;20203;-82
2023/03/05 13:02:54;;;;;;;2.03;0.90;;;8.60;99.90;;;;;;5031720;28;20182;-83
2023/03/05 13:05:25;;;;;;;3.30;1.13;;;8.50;99.90;;;;;;5032355;28;20206;-82
2023/03/05 13:07:52;;;;;;;1.80;0.70;;;8.40;99.90;;;;;;5032126;28;20215;-83
2023/03/05 13:10:27;;;;;;;3.37;1.20;;;8.40;99.90;;;;;;5038578;28;20202;-82
2023/03/05 13:12:57;;;;;;;1.77;0.80;;;8.30;99.90;;;;;;5054213;28;20344;-82
2023/03/05 13:15:25;;;;;;;2.87;0.70;;;8.30;99.90;;;;;;5045296;28;20206;-82